Aérodrome :







RETROUVEZ-NOUS SUR...

 
LOGIN :

S'inscrire | Disclaimer

   EN    FR    IT 

 









Légende :    VFR   VFR Marginal   IFR   IFR Intensif   IFR Très Intensif
Visi : 
Plafond : 
>= 8 km
>= 3000ft
5 à 8 km
1000 à 3000 ft
1500m à 5 km
500 à 1000 ft
800 à 1500m
200 à 500 ft
< 800m
< 200 ft
Symboles :   Orages  Brouillard  Fortes neiges  Fortes précipitations  Vent > 20 kt







- Altitude de l'aérodrome : 322 ft


KDAW - Skyhaven

DERNIER METAR :
  • 202251Z AUTO VRB04KT 4SM BR OVC003 16/15 A2951 RMK AO2 SLP991 T01560150

METARs EXPIRÉS :
  • 202240Z AUTO 04006KT 1 3/4SM BR OVC003 16/15 A2952 RMK AO2 T01560150
  • 202224Z AUTO 34006KT 1/2SM FG VV002 16/15 A2953 RMK AO2 T01610150
  • 202206Z AUTO 00000KT 1/4SM FG VV002 16/15 A2952 RMK AO2 T01560150
  • 202151Z AUTO 13004KT 1/2SM FG VV002 16/15 A2951 RMK AO2 RAE02 SLP990 P0001 T01560150
  • 202123Z AUTO 16004KT 3/4SM BR OVC002 16/15 A2952 RMK AO2 RAE02 P0001 T01560150
  • 202051Z AUTO 15004KT 1 1/4SM -RA BR OVC003 16/15 A2953 RMK AO2 LTG DSNT N AND NW SLP998 P0003 60022 T01560150 56027
  • 202039Z AUTO 14005KT 1 3/4SM VCTS -RA BR OVC003 16/15 A2954 RMK AO2 LTG DSNT NW P0003 T01560150
  • 202018Z AUTO 12006KT 1 3/4SM -RA BR OVC003 16/14 A2955 RMK AO2 LTG DSNT W P0001 T01560144

TAF N/A
FIR KZBW / Amérique du Nord



MET'MAP, la Météo Aéronautique d'un coup d'oeil ! - Copyright ORBIFLY Décembre 2007 - Disclaimer

ORBIFLY MET'MAP TEAM :

Programmation & Développement : Alexandra Zaïnal
Conception & Développement : Baudouin d'Aumeries
Co-Programmation & Développement : Marc-Olivier Méhu
Soutien technique & logistique : Manuel Goepfert

Contact : metmap@orbifly.com




SOURCES & CREDITS :

   NOAA